createdAt,value
2022-11-06T00:02:13.662Z,8.11
2022-11-06T00:07:25.731Z,8.06
2022-11-06T00:12:32.887Z,8.01
2022-11-06T00:17:40.828Z,8.01
2022-11-06T00:22:48.599Z,8.00
2022-11-06T00:27:56.510Z,7.98
2022-11-06T00:33:04.143Z,7.95
2022-11-06T00:38:11.404Z,7.91
2022-11-06T00:43:18.824Z,7.90
2022-11-06T00:48:26.058Z,7.88
2022-11-06T00:53:33.440Z,7.86
2022-11-06T00:58:41.664Z,7.84
2022-11-06T01:03:54.682Z,7.80
2022-11-06T01:09:02.576Z,7.79
2022-11-06T01:14:12.421Z,7.78
2022-11-06T01:19:21.196Z,7.75
2022-11-06T01:24:31.885Z,7.75
2022-11-06T01:29:39.687Z,7.74
2022-11-06T01:34:47.101Z,7.76
2022-11-06T01:39:54.400Z,7.77
2022-11-06T01:45:28.522Z,7.73
2022-11-06T01:50:36.180Z,7.70
2022-11-06T01:55:48.001Z,7.68
2022-11-06T02:00:55.593Z,7.66
2022-11-06T02:06:03.580Z,7.67
2022-11-06T02:11:11.367Z,7.68
2022-11-06T02:16:23.470Z,7.68
2022-11-06T02:21:59.684Z,7.68
2022-11-06T02:27:12.234Z,7.65
2022-11-06T02:32:25.659Z,7.63
2022-11-06T02:47:27.796Z,7.67
2022-11-06T02:52:38.476Z,7.65
2022-11-06T02:57:50.281Z,7.64
2022-11-06T03:03:01.846Z,7.59
2022-11-06T03:08:15.791Z,7.58
2022-11-06T03:13:28.776Z,7.52
2022-11-06T03:18:44.480Z,7.47
2022-11-06T03:23:56.265Z,7.44
2022-11-06T03:29:10.769Z,7.45
2022-11-06T03:34:26.556Z,7.47
2022-11-06T03:39:37.755Z,7.45
2022-11-06T03:44:49.971Z,7.38
2022-11-06T03:50:02.603Z,7.31
2022-11-06T03:55:14.722Z,7.25
2022-11-06T04:00:23.384Z,7.23
2022-11-06T04:05:30.860Z,7.26
2022-11-06T04:10:58.305Z,7.27
2022-11-06T04:16:06.893Z,7.22
2022-11-06T04:21:26.104Z,7.14
2022-11-06T04:26:39.873Z,7.11
2022-11-06T04:31:56.889Z,7.08
2022-11-06T04:37:10.687Z,7.04
2022-11-06T04:42:29.957Z,7.01
2022-11-06T04:47:40.038Z,7.01
2022-11-06T04:52:48.872Z,7.04
2022-11-06T04:57:56.011Z,7.07
2022-11-06T05:03:03.410Z,7.11
2022-11-06T05:08:16.594Z,7.13
2022-11-06T05:13:23.922Z,7.15
2022-11-06T05:18:29.796Z,7.21
2022-11-06T05:23:38.685Z,7.25
2022-11-06T05:28:45.722Z,7.24
2022-11-06T05:33:51.292Z,7.22
2022-11-06T05:38:58.275Z,7.15
2022-11-06T05:44:05.678Z,7.07
2022-11-06T05:49:13.198Z,7.03
2022-11-06T05:54:20.029Z,7.04
2022-11-06T05:59:26.966Z,7.05
2022-11-06T06:04:34.060Z,7.05
2022-11-06T06:09:39.352Z,7.06
2022-11-06T06:14:50.274Z,7.06
2022-11-06T06:19:58.063Z,7.00
2022-11-06T06:25:10.407Z,6.97
2022-11-06T06:30:23.278Z,7.02
2022-11-06T06:35:30.384Z,7.10
2022-11-06T06:40:37.370Z,7.11
2022-11-06T06:45:44.703Z,7.15
2022-11-06T06:50:52.076Z,7.19
2022-11-06T06:56:01.967Z,7.22
2022-11-06T07:01:11.310Z,7.27
2022-11-06T07:06:21.183Z,7.35
2022-11-06T07:11:28.089Z,7.40
2022-11-06T07:16:35.155Z,7.47
2022-11-06T07:21:42.456Z,7.55
2022-11-06T07:26:50.088Z,7.65
2022-11-06T07:31:57.205Z,7.74
2022-11-06T07:37:07.339Z,7.79
2022-11-06T07:42:14.728Z,7.83
2022-11-06T07:47:20.198Z,7.82
2022-11-06T07:52:27.570Z,7.92
2022-11-06T07:57:38.872Z,7.98
2022-11-06T08:02:45.920Z,8.09
2022-11-06T08:07:57.089Z,8.18
2022-11-06T08:13:04.590Z,8.25
2022-11-06T08:18:13.437Z,8.28
2022-11-06T08:23:21.333Z,8.26
2022-11-06T08:28:30.292Z,8.23
2022-11-06T08:33:38.872Z,8.24
2022-11-06T08:38:48.435Z,8.23
2022-11-06T08:43:55.535Z,8.33
2022-11-06T08:49:02.561Z,8.48
2022-11-06T08:54:11.222Z,8.61
2022-11-06T08:59:19.319Z,8.72
2022-11-06T09:04:26.720Z,8.82
2022-11-06T09:09:33.727Z,8.88
2022-11-06T09:14:41.320Z,8.85
2022-11-06T09:19:48.514Z,8.86
2022-11-06T09:25:03.773Z,8.92
2022-11-06T09:30:14.609Z,9.01
2022-11-06T09:35:22.943Z,9.15
2022-11-06T09:40:35.239Z,9.21
2022-11-06T09:45:43.563Z,9.19
2022-11-06T09:50:57.833Z,9.21
2022-11-06T09:56:06.641Z,9.26
2022-11-06T10:01:24.615Z,9.29
2022-11-06T10:06:35.790Z,9.35
2022-11-06T10:11:59.378Z,9.39
2022-11-06T10:17:19.657Z,9.39
2022-11-06T10:22:33.368Z,9.36
2022-11-06T10:27:43.722Z,9.33
2022-11-06T10:33:13.264Z,9.25
2022-11-06T10:38:25.073Z,9.20
2022-11-06T10:43:36.502Z,9.17
2022-11-06T10:48:48.609Z,9.08
2022-11-06T10:54:06.485Z,9.06
2022-11-06T10:59:13.630Z,9.08
2022-11-06T11:04:20.781Z,9.13
2022-11-06T11:09:32.766Z,9.17
2022-11-06T11:14:39.823Z,9.08
2022-11-06T11:19:46.902Z,9.08
2022-11-06T11:25:03.256Z,9.05
2022-11-06T11:30:26.360Z,8.99
2022-11-06T11:35:35.775Z,8.92
2022-11-06T11:40:43.614Z,8.87
2022-11-06T11:46:05.377Z,8.88
2022-11-06T11:51:25.582Z,8.99
2022-11-06T11:56:58.282Z,9.02
2022-11-06T12:02:05.403Z,9.06
2022-11-06T12:07:32.608Z,9.13
2022-11-06T12:12:40.062Z,9.17
2022-11-06T12:17:50.624Z,9.16
2022-11-06T12:22:59.854Z,9.16
2022-11-06T12:28:14.517Z,9.20
2022-11-06T12:33:59.652Z,9.20
2022-11-06T12:38:57.250Z,9.14
2022-11-06T12:44:05.435Z,9.11
2022-11-06T12:49:35.332Z,9.15
2022-11-06T12:54:57.982Z,9.20
2022-11-06T13:00:11.175Z,9.22
2022-11-06T13:05:22.017Z,9.22
2022-11-06T13:10:37.996Z,9.19
2022-11-06T13:15:54.549Z,9.15
2022-11-06T13:21:08.546Z,9.12
2022-11-06T13:26:24.247Z,9.10
2022-11-06T13:31:37.714Z,9.09
2022-11-06T13:36:45.432Z,9.08
2022-11-06T13:41:53.714Z,9.08
2022-11-06T13:47:09.892Z,9.06
2022-11-06T13:52:22.989Z,9.04
2022-11-06T13:57:59.344Z,9.02
2022-11-06T14:03:42.992Z,8.99
2022-11-06T14:08:53.451Z,9.00
2022-11-06T14:14:03.819Z,9.00
2022-11-06T14:19:15.780Z,8.99
2022-11-06T14:24:43.525Z,8.98
2022-11-06T14:30:02.434Z,8.95
2022-11-06T14:35:51.799Z,8.92
2022-11-06T14:40:59.340Z,8.87
2022-11-06T14:46:09.138Z,8.83
2022-11-06T14:51:17.310Z,8.81
2022-11-06T14:56:27.639Z,8.75
2022-11-06T15:01:37.289Z,8.68
2022-11-06T15:06:48.403Z,8.62
2022-11-06T15:11:58.666Z,8.58
2022-11-06T15:17:12.721Z,8.53
2022-11-06T15:22:26.331Z,8.45
2022-11-06T15:27:43.040Z,8.42
2022-11-06T15:32:53.996Z,8.39
2022-11-06T15:38:08.499Z,8.37
2022-11-06T15:43:26.195Z,8.37
2022-11-06T15:48:33.738Z,8.36
2022-11-06T15:53:42.896Z,8.37
2022-11-06T15:59:08.917Z,8.40
2022-11-06T16:04:20.672Z,8.43
2022-11-06T16:09:28.973Z,8.45
2022-11-06T16:14:41.869Z,8.47
2022-11-06T16:19:51.881Z,8.49
2022-11-06T16:25:03.104Z,8.48
2022-11-06T16:30:25.468Z,8.47
2022-11-06T16:35:35.727Z,8.48
2022-11-06T16:40:55.942Z,8.53
2022-11-06T16:46:08.042Z,8.58
2022-11-06T16:51:30.200Z,8.61
2022-11-06T16:56:37.822Z,8.62
2022-11-06T17:01:48.410Z,8.63
2022-11-06T17:06:57.523Z,8.61
2022-11-06T17:12:11.421Z,8.61
2022-11-06T17:17:28.493Z,8.62
2022-11-06T17:22:35.526Z,8.66
2022-11-06T17:27:40.925Z,8.67
2022-11-06T17:32:48.191Z,8.68
2022-11-06T17:37:55.701Z,8.67
2022-11-06T17:43:02.750Z,8.65
2022-11-06T17:48:10.617Z,8.65
2022-11-06T17:53:17.903Z,8.68
2022-11-06T17:58:25.321Z,8.69
2022-11-06T18:03:36.710Z,8.70
2022-11-06T18:08:44.721Z,8.70
2022-11-06T18:13:51.934Z,8.68
2022-11-06T18:18:59.569Z,8.67
2022-11-06T18:24:08.436Z,8.66
2022-11-06T18:29:16.542Z,8.64
2022-11-06T18:34:24.123Z,8.63
2022-11-06T18:39:31.305Z,8.61
2022-11-06T18:44:41.582Z,8.61
2022-11-06T18:49:48.579Z,8.60
2022-11-06T18:55:00.691Z,8.62
2022-11-06T19:00:13.470Z,8.62
2022-11-06T19:05:22.473Z,8.61
2022-11-06T19:10:31.324Z,8.61
2022-11-06T19:15:40.040Z,8.59
2022-11-06T19:20:47.352Z,8.60
2022-11-06T19:26:04.532Z,8.60
2022-11-06T19:31:29.431Z,8.59
2022-11-06T19:36:37.212Z,8.60
2022-11-06T19:41:44.846Z,8.59
2022-11-06T19:46:53.186Z,8.59
2022-11-06T19:52:41.397Z,8.61
2022-11-06T19:57:30.517Z,8.61
2022-11-06T20:02:38.064Z,8.61
2022-11-06T20:07:45.599Z,8.60
2022-11-06T20:12:53.179Z,8.60
2022-11-06T20:18:00.578Z,8.62
2022-11-06T20:23:07.953Z,8.62
2022-11-06T20:28:15.210Z,8.62
2022-11-06T20:33:23.032Z,8.60
2022-11-06T20:38:30.437Z,8.59
2022-11-06T20:43:37.736Z,8.59
2022-11-06T20:48:46.096Z,8.59
2022-11-06T20:53:54.034Z,8.58
2022-11-06T20:59:01.194Z,8.54
2022-11-06T21:04:08.573Z,8.50
2022-11-06T21:09:17.313Z,8.50
2022-11-06T21:14:25.192Z,8.49
2022-11-06T21:19:33.350Z,8.47
2022-11-06T21:24:41.475Z,8.44
2022-11-06T21:29:48.474Z,8.40
2022-11-06T21:34:54.228Z,8.38
2022-11-06T21:40:01.840Z,8.39
2022-11-06T21:45:14.791Z,8.40
2022-11-06T21:50:29.558Z,8.40
2022-11-06T21:55:57.353Z,8.40
2022-11-06T22:01:07.220Z,8.41
2022-11-06T22:06:16.875Z,8.42
2022-11-06T22:11:26.004Z,8.42
2022-11-06T22:16:36.248Z,8.43
2022-11-06T22:27:24.593Z,8.49
2022-11-06T22:32:32.665Z,8.46
2022-11-06T22:37:40.295Z,8.45
2022-11-06T22:42:50.101Z,8.42
2022-11-06T22:47:58.822Z,8.37
2022-11-06T22:53:04.304Z,8.37
2022-11-06T22:58:11.604Z,8.37
2022-11-06T23:03:19.257Z,8.35
2022-11-06T23:08:27.796Z,8.30
2022-11-06T23:13:35.101Z,8.26
2022-11-06T23:18:42.960Z,8.23
2022-11-06T23:23:49.979Z,8.21
2022-11-06T23:28:59.147Z,8.19
2022-11-06T23:34:06.610Z,8.17
2022-11-06T23:39:15.316Z,8.11
2022-11-06T23:44:39.998Z,8.11
2022-11-06T23:49:48.427Z,8.11
2022-11-06T23:54:55.734Z,8.11
